Okanogan, WA

12:56 PM PDT on September 19, 2014 (GMT -0700)
Omak | Change Station
CLOSE
Current Station
Airport
Location: Omak,
Elevation: 1302 ft
Nearby Weather Stations

Elev 1302 ft 48.46 °N, 119.52 °W | Updated 1 hour ago

Partly Cloudy
Partly Cloudy
78 °F
Feels Like 78 °F
N
12
Wind Variable Wind from South

Today
High -- | Low -- °F
--% Chance of Precip.
Yesterday
High -- | Low -- °F
Precip. -- in
6:40 AM 7:02 PM
Waning Crescent, 17% visible
Pressure 29.96 in
Visibility 10.0 miles
Clouds Clear
Dew Point 47 °F
Humidity 33%
Rainfall 0.00 in
Snow Depth 0 in , 0 in , 0 in
UV 6 out of 12
Pollen 7.40 out of 12
Air Quality Not available.
Flu Activity Not available.
METAR KOMK 191853Z AUTO 17010KT 10SM CLR 26/08 A2997 RMK AO2 SLP144 T02560083 $

More Conditions Fewer Conditions

Pressure 29.96 in
Visibility 10.0 miles
Clouds Clear
Dew Point 47 °F
Humidity 33%
Rainfall 0.00 in
Snow Depth 0 in , 0 in , 0 in
UV 6 out of 12
Pollen 7.40 out of 12
Air Quality Not available.
Flu Activity Not available.
METAR KOMK 191853Z AUTO 17010KT 10SM CLR 26/08 A2997 RMK AO2 SLP144 T02560083 $

More Conditions Fewer Conditions

10-Day Weather Forecast

Almanac

Astronomy

Sep. 19, 2014 Rise Set
Actual Time 6:40 AM PDT 7:02 PM PDT
Civil Twilight 6:09 AM PDT 7:33 PM PDT
Nautical Twilight 5:32 AM PDT 8:10 PM PDT
Astronomical Twilight 4:54 AM PDT 8:48 PM PDT
Moon 2:14 AM PDT 4:47 PM PDT
Length of Visible Light 13h 23m
Length of Day
12h 21m
Tomorrow will be 3m 30s shorter.
Waning Crescent, 17% of the Moon is Illuminated
Today
Waning Crescent
Sep 24
New
Oct 1
First Quarter
Oct 8
Full
Oct 15
Last Quarter

Today's Extremes

State Highs State Lows

Community

WunderPhotos

Upload Photos

1,754,687 photos uploaded!

WunderBlogs® & News

By Dr. Jeff Masters
Director of Meteorology, Weather Underground
By Kari Strenfel
Meteorologist, Weather Underground
By Christopher C. Burt
Weather Historian, Weather Underground
September 19, 2014
September 19, 2014
September 19, 2014

Nearby

Snow Depth

Station Depth Elevation
Harts Pass 0 in 6500 ft
Grouse Camp 0 in 3200 ft
Elbow Lake 0 in 3200 ft
Lost Horse 0 in 5000 ft
Pigtail Peak 0 in 5900 ft

Earthquake Activity

City Distance Mag. Time & Date
No recent earthquake activity has been reported nearby.
Minimum magnitude displayed is 2.5.

Coastal Water Temperatures

Place Temperature
No Stations Reporting

Nearby Weather Stations